sensor_id;sensor_type;location;lat;lon;timestamp;P1;durP1;ratioP1;P2;durP2;ratioP2
13571;SDS011;6857;53.484;10.216;2024-02-14T00:01:52;6.43;;;2.53;;
13571;SDS011;6857;53.484;10.216;2024-02-14T00:04:18;3.80;;;2.83;;
13571;SDS011;6857;53.484;10.216;2024-02-14T00:06:44;9.77;;;2.93;;
13571;SDS011;6857;53.484;10.216;2024-02-14T00:09:10;6.00;;;2.93;;
13571;SDS011;6857;53.484;10.216;2024-02-14T00:11:36;4.50;;;2.30;;
13571;SDS011;6857;53.484;10.216;2024-02-14T00:14:02;4.10;;;2.23;;
13571;SDS011;6857;53.484;10.216;2024-02-14T00:16:28;3.40;;;2.00;;
13571;SDS011;6857;53.484;10.216;2024-02-14T00:18:56;3.07;;;2.00;;
13571;SDS011;6857;53.484;10.216;2024-02-14T00:21:22;7.77;;;2.87;;
13571;SDS011;6857;53.484;10.216;2024-02-14T00:23:49;4.87;;;2.40;;
13571;SDS011;6857;53.484;10.216;2024-02-14T00:26:14;2.77;;;2.07;;
13571;SDS011;6857;53.484;10.216;2024-02-14T00:28:40;3.70;;;2.30;;
13571;SDS011;6857;53.484;10.216;2024-02-14T00:31:05;5.77;;;2.00;;
13571;SDS011;6857;53.484;10.216;2024-02-14T00:33:31;6.03;;;2.40;;
13571;SDS011;6857;53.484;10.216;2024-02-14T00:35:57;5.17;;;2.40;;
13571;SDS011;6857;53.484;10.216;2024-02-14T00:38:22;2.50;;;2.30;;
13571;SDS011;6857;53.484;10.216;2024-02-14T00:40:48;6.10;;;2.50;;
13571;SDS011;6857;53.484;10.216;2024-02-14T00:43:14;5.33;;;2.57;;
13571;SDS011;6857;53.484;10.216;2024-02-14T00:45:39;8.97;;;2.50;;
13571;SDS011;6857;53.484;10.216;2024-02-14T00:48:05;5.37;;;2.60;;
13571;SDS011;6857;53.484;10.216;2024-02-14T00:50:32;2.73;;;1.97;;
13571;SDS011;6857;53.484;10.216;2024-02-14T00:52:58;5.40;;;2.40;;
13571;SDS011;6857;53.484;10.216;2024-02-14T00:55:25;6.03;;;2.87;;
13571;SDS011;6857;53.484;10.216;2024-02-14T00:57:50;3.40;;;2.57;;
13571;SDS011;6857;53.484;10.216;2024-02-14T01:00:16;2.80;;;2.27;;
13571;SDS011;6857;53.484;10.216;2024-02-14T01:02:42;2.67;;;2.17;;
13571;SDS011;6857;53.484;10.216;2024-02-14T01:05:08;4.10;;;2.30;;
13571;SDS011;6857;53.484;10.216;2024-02-14T01:07:34;2.73;;;2.03;;
13571;SDS011;6857;53.484;10.216;2024-02-14T01:10:00;3.77;;;2.07;;
13571;SDS011;6857;53.484;10.216;2024-02-14T01:12:25;3.27;;;2.10;;
13571;SDS011;6857;53.484;10.216;2024-02-14T01:14:51;5.23;;;2.00;;
13571;SDS011;6857;53.484;10.216;2024-02-14T01:17:17;4.90;;;2.13;;
13571;SDS011;6857;53.484;10.216;2024-02-14T01:19:42;3.33;;;2.03;;
13571;SDS011;6857;53.484;10.216;2024-02-14T01:22:08;2.73;;;1.77;;
13571;SDS011;6857;53.484;10.216;2024-02-14T01:24:34;3.07;;;2.13;;
13571;SDS011;6857;53.484;10.216;2024-02-14T01:27:00;2.93;;;1.90;;
13571;SDS011;6857;53.484;10.216;2024-02-14T01:29:25;3.70;;;1.80;;
13571;SDS011;6857;53.484;10.216;2024-02-14T01:31:51;2.27;;;1.87;;
13571;SDS011;6857;53.484;10.216;2024-02-14T01:34:17;7.30;;;2.47;;
13571;SDS011;6857;53.484;10.216;2024-02-14T01:36:43;4.20;;;2.20;;
13571;SDS011;6857;53.484;10.216;2024-02-14T01:39:08;3.33;;;2.13;;
13571;SDS011;6857;53.484;10.216;2024-02-14T01:41:36;4.27;;;2.23;;
13571;SDS011;6857;53.484;10.216;2024-02-14T01:44:03;4.10;;;2.20;;
13571;SDS011;6857;53.484;10.216;2024-02-14T01:46:29;5.67;;;2.40;;
13571;SDS011;6857;53.484;10.216;2024-02-14T01:48:55;4.63;;;2.73;;
13571;SDS011;6857;53.484;10.216;2024-02-14T01:51:21;3.23;;;2.17;;
13571;SDS011;6857;53.484;10.216;2024-02-14T01:53:49;5.93;;;2.23;;
13571;SDS011;6857;53.484;10.216;2024-02-14T01:56:16;4.03;;;1.73;;
13571;SDS011;6857;53.484;10.216;2024-02-14T01:58:41;3.57;;;2.30;;
13571;SDS011;6857;53.484;10.216;2024-02-14T02:01:08;3.23;;;2.17;;
13571;SDS011;6857;53.484;10.216;2024-02-14T02:03:34;7.43;;;2.63;;
13571;SDS011;6857;53.484;10.216;2024-02-14T02:06:02;3.33;;;2.17;;
13571;SDS011;6857;53.484;10.216;2024-02-14T02:08:30;4.13;;;1.97;;
13571;SDS011;6857;53.484;10.216;2024-02-14T02:10:55;4.63;;;2.50;;
13571;SDS011;6857;53.484;10.216;2024-02-14T02:13:21;4.60;;;2.57;;
13571;SDS011;6857;53.484;10.216;2024-02-14T02:15:46;4.57;;;2.80;;
13571;SDS011;6857;53.484;10.216;2024-02-14T02:18:12;6.97;;;2.43;;
13571;SDS011;6857;53.484;10.216;2024-02-14T02:20:38;5.97;;;2.60;;
13571;SDS011;6857;53.484;10.216;2024-02-14T02:23:03;6.17;;;2.70;;
13571;SDS011;6857;53.484;10.216;2024-02-14T02:25:30;5.13;;;2.23;;
13571;SDS011;6857;53.484;10.216;2024-02-14T02:27:55;6.50;;;2.60;;
13571;SDS011;6857;53.484;10.216;2024-02-14T02:30:24;6.60;;;2.43;;
13571;SDS011;6857;53.484;10.216;2024-02-14T02:32:50;3.87;;;2.50;;
13571;SDS011;6857;53.484;10.216;2024-02-14T02:35:16;5.70;;;2.50;;
13571;SDS011;6857;53.484;10.216;2024-02-14T02:37:45;5.87;;;2.73;;
13571;SDS011;6857;53.484;10.216;2024-02-14T02:40:11;5.77;;;2.67;;
13571;SDS011;6857;53.484;10.216;2024-02-14T02:42:37;4.10;;;2.40;;
13571;SDS011;6857;53.484;10.216;2024-02-14T02:45:03;4.73;;;2.63;;
13571;SDS011;6857;53.484;10.216;2024-02-14T02:47:31;5.60;;;3.67;;
13571;SDS011;6857;53.484;10.216;2024-02-14T02:49:57;4.70;;;2.60;;
13571;SDS011;6857;53.484;10.216;2024-02-14T02:52:24;5.33;;;2.60;;
13571;SDS011;6857;53.484;10.216;2024-02-14T02:54:50;5.20;;;2.80;;
13571;SDS011;6857;53.484;10.216;2024-02-14T02:57:17;5.43;;;3.13;;
13571;SDS011;6857;53.484;10.216;2024-02-14T02:59:44;3.60;;;2.90;;
13571;SDS011;6857;53.484;10.216;2024-02-14T03:02:11;3.50;;;2.60;;
13571;SDS011;6857;53.484;10.216;2024-02-14T03:04:40;3.23;;;2.67;;
13571;SDS011;6857;53.484;10.216;2024-02-14T03:07:07;4.30;;;3.00;;
13571;SDS011;6857;53.484;10.216;2024-02-14T03:09:34;4.33;;;3.00;;
13571;SDS011;6857;53.484;10.216;2024-02-14T03:12:00;3.20;;;2.63;;
13571;SDS011;6857;53.484;10.216;2024-02-14T03:14:28;5.93;;;3.57;;
13571;SDS011;6857;53.484;10.216;2024-02-14T03:16:58;4.40;;;3.13;;
13571;SDS011;6857;53.484;10.216;2024-02-14T03:19:24;5.63;;;3.30;;
13571;SDS011;6857;53.484;10.216;2024-02-14T03:21:51;6.40;;;3.30;;
13571;SDS011;6857;53.484;10.216;2024-02-14T03:24:18;4.13;;;3.57;;
13571;SDS011;6857;53.484;10.216;2024-02-14T03:26:43;6.77;;;3.17;;
13571;SDS011;6857;53.484;10.216;2024-02-14T03:29:09;5.17;;;3.67;;
13571;SDS011;6857;53.484;10.216;2024-02-14T03:31:35;6.47;;;3.53;;
13571;SDS011;6857;53.484;10.216;2024-02-14T03:34:01;6.30;;;3.30;;
13571;SDS011;6857;53.484;10.216;2024-02-14T03:36:27;4.03;;;3.20;;
13571;SDS011;6857;53.484;10.216;2024-02-14T03:38:56;6.30;;;3.33;;
13571;SDS011;6857;53.484;10.216;2024-02-14T03:41:22;4.53;;;2.80;;
13571;SDS011;6857;53.484;10.216;2024-02-14T03:43:47;4.47;;;3.20;;
13571;SDS011;6857;53.484;10.216;2024-02-14T03:46:14;6.17;;;3.30;;
13571;SDS011;6857;53.484;10.216;2024-02-14T03:48:40;5.43;;;3.43;;
13571;SDS011;6857;53.484;10.216;2024-02-14T03:51:08;5.10;;;3.70;;
13571;SDS011;6857;53.484;10.216;2024-02-14T03:53:33;5.23;;;3.33;;
13571;SDS011;6857;53.484;10.216;2024-02-14T03:55:59;4.53;;;3.10;;
13571;SDS011;6857;53.484;10.216;2024-02-14T03:58:25;5.40;;;3.70;;
13571;SDS011;6857;53.484;10.216;2024-02-14T04:00:51;5.73;;;3.80;;
13571;SDS011;6857;53.484;10.216;2024-02-14T04:03:17;7.87;;;3.90;;
13571;SDS011;6857;53.484;10.216;2024-02-14T04:05:43;4.53;;;3.63;;
13571;SDS011;6857;53.484;10.216;2024-02-14T04:08:09;5.43;;;3.87;;
13571;SDS011;6857;53.484;10.216;2024-02-14T04:10:36;4.93;;;3.57;;
13571;SDS011;6857;53.484;10.216;2024-02-14T04:13:05;5.83;;;3.83;;
13571;SDS011;6857;53.484;10.216;2024-02-14T04:15:31;5.57;;;3.67;;
13571;SDS011;6857;53.484;10.216;2024-02-14T04:17:57;5.37;;;4.07;;
13571;SDS011;6857;53.484;10.216;2024-02-14T04:20:24;6.40;;;3.57;;
13571;SDS011;6857;53.484;10.216;2024-02-14T04:22:50;6.77;;;4.40;;
13571;SDS011;6857;53.484;10.216;2024-02-14T04:25:15;9.00;;;3.73;;
13571;SDS011;6857;53.484;10.216;2024-02-14T04:27:41;5.60;;;3.57;;
13571;SDS011;6857;53.484;10.216;2024-02-14T04:30:07;7.93;;;4.30;;
13571;SDS011;6857;53.484;10.216;2024-02-14T04:32:32;5.73;;;3.93;;
13571;SDS011;6857;53.484;10.216;2024-02-14T04:34:58;5.83;;;3.80;;
13571;SDS011;6857;53.484;10.216;2024-02-14T04:37:24;6.57;;;4.07;;
13571;SDS011;6857;53.484;10.216;2024-02-14T04:39:49;6.93;;;4.17;;
13571;SDS011;6857;53.484;10.216;2024-02-14T04:42:15;6.90;;;3.70;;
13571;SDS011;6857;53.484;10.216;2024-02-14T04:44:40;6.97;;;4.13;;
13571;SDS011;6857;53.484;10.216;2024-02-14T04:47:06;6.57;;;3.90;;
13571;SDS011;6857;53.484;10.216;2024-02-14T04:49:34;5.27;;;3.87;;
13571;SDS011;6857;53.484;10.216;2024-02-14T04:52:00;7.63;;;4.27;;
13571;SDS011;6857;53.484;10.216;2024-02-14T04:54:26;5.97;;;3.77;;
13571;SDS011;6857;53.484;10.216;2024-02-14T04:56:51;6.60;;;3.97;;
13571;SDS011;6857;53.484;10.216;2024-02-14T04:59:17;8.93;;;4.63;;
13571;SDS011;6857;53.484;10.216;2024-02-14T05:01:43;6.87;;;4.40;;
13571;SDS011;6857;53.484;10.216;2024-02-14T05:04:08;8.53;;;4.20;;
13571;SDS011;6857;53.484;10.216;2024-02-14T05:06:34;9.07;;;4.37;;
13571;SDS011;6857;53.484;10.216;2024-02-14T05:08:59;8.27;;;4.43;;
13571;SDS011;6857;53.484;10.216;2024-02-14T05:11:25;7.20;;;4.57;;
13571;SDS011;6857;53.484;10.216;2024-02-14T05:13:50;6.80;;;4.43;;
13571;SDS011;6857;53.484;10.216;2024-02-14T05:16:19;7.43;;;4.60;;
13571;SDS011;6857;53.484;10.216;2024-02-14T05:18:45;6.67;;;4.77;;
13571;SDS011;6857;53.484;10.216;2024-02-14T05:21:11;8.20;;;4.90;;
13571;SDS011;6857;53.484;10.216;2024-02-14T05:23:37;6.90;;;4.27;;
13571;SDS011;6857;53.484;10.216;2024-02-14T05:26:03;8.67;;;4.70;;
13571;SDS011;6857;53.484;10.216;2024-02-14T05:28:29;7.67;;;5.07;;
13571;SDS011;6857;53.484;10.216;2024-02-14T05:31:01;6.07;;;4.20;;
13571;SDS011;6857;53.484;10.216;2024-02-14T05:33:28;6.93;;;4.77;;
13571;SDS011;6857;53.484;10.216;2024-02-14T05:35:53;6.13;;;4.37;;
13571;SDS011;6857;53.484;10.216;2024-02-14T05:38:19;9.20;;;4.90;;
13571;SDS011;6857;53.484;10.216;2024-02-14T05:40:48;10.10;;;5.53;;
13571;SDS011;6857;53.484;10.216;2024-02-14T05:43:14;7.33;;;4.63;;
13571;SDS011;6857;53.484;10.216;2024-02-14T05:45:40;8.27;;;5.30;;
13571;SDS011;6857;53.484;10.216;2024-02-14T05:48:07;9.27;;;5.10;;
13571;SDS011;6857;53.484;10.216;2024-02-14T05:50:33;8.80;;;5.23;;
13571;SDS011;6857;53.484;10.216;2024-02-14T05:52:59;9.10;;;5.47;;
13571;SDS011;6857;53.484;10.216;2024-02-14T05:55:24;6.37;;;4.63;;
13571;SDS011;6857;53.484;10.216;2024-02-14T05:57:53;8.33;;;5.57;;
13571;SDS011;6857;53.484;10.216;2024-02-14T06:00:19;10.10;;;5.60;;
13571;SDS011;6857;53.484;10.216;2024-02-14T06:02:48;10.87;;;6.77;;
13571;SDS011;6857;53.484;10.216;2024-02-14T06:05:14;8.43;;;5.23;;
13571;SDS011;6857;53.484;10.216;2024-02-14T06:07:40;17.20;;;7.43;;
13571;SDS011;6857;53.484;10.216;2024-02-14T06:10:06;11.80;;;6.37;;
13571;SDS011;6857;53.484;10.216;2024-02-14T06:12:33;11.23;;;6.27;;
13571;SDS011;6857;53.484;10.216;2024-02-14T06:15:00;10.17;;;5.77;;
13571;SDS011;6857;53.484;10.216;2024-02-14T06:17:26;9.00;;;6.30;;
13571;SDS011;6857;53.484;10.216;2024-02-14T06:19:52;10.17;;;5.87;;
13571;SDS011;6857;53.484;10.216;2024-02-14T06:22:18;9.03;;;6.30;;
13571;SDS011;6857;53.484;10.216;2024-02-14T06:24:43;8.33;;;5.63;;
13571;SDS011;6857;53.484;10.216;2024-02-14T06:27:09;10.03;;;5.87;;
13571;SDS011;6857;53.484;10.216;2024-02-14T06:29:35;9.40;;;6.70;;
13571;SDS011;6857;53.484;10.216;2024-02-14T06:32:00;8.50;;;5.90;;
13571;SDS011;6857;53.484;10.216;2024-02-14T06:34:26;20.00;;;8.13;;
13571;SDS011;6857;53.484;10.216;2024-02-14T06:36:53;10.10;;;6.83;;
13571;SDS011;6857;53.484;10.216;2024-02-14T06:39:19;9.03;;;6.40;;
13571;SDS011;6857;53.484;10.216;2024-02-14T06:41:45;8.80;;;6.23;;
13571;SDS011;6857;53.484;10.216;2024-02-14T06:44:12;11.70;;;6.57;;
13571;SDS011;6857;53.484;10.216;2024-02-14T06:46:37;9.13;;;6.73;;
13571;SDS011;6857;53.484;10.216;2024-02-14T06:49:03;10.03;;;6.63;;
13571;SDS011;6857;53.484;10.216;2024-02-14T06:51:29;9.77;;;6.70;;
13571;SDS011;6857;53.484;10.216;2024-02-14T06:53:55;20.77;;;9.57;;
13571;SDS011;6857;53.484;10.216;2024-02-14T06:56:21;18.23;;;9.93;;
13571;SDS011;6857;53.484;10.216;2024-02-14T06:58:47;10.90;;;6.90;;
13571;SDS011;6857;53.484;10.216;2024-02-14T07:01:18;12.13;;;7.07;;
13571;SDS011;6857;53.484;10.216;2024-02-14T07:03:47;11.80;;;6.60;;
13571;SDS011;6857;53.484;10.216;2024-02-14T07:06:13;16.07;;;8.80;;
13571;SDS011;6857;53.484;10.216;2024-02-14T07:08:42;15.80;;;8.10;;
13571;SDS011;6857;53.484;10.216;2024-02-14T07:11:08;12.50;;;8.13;;
13571;SDS011;6857;53.484;10.216;2024-02-14T07:13:34;11.10;;;7.17;;
13571;SDS011;6857;53.484;10.216;2024-02-14T07:15:59;14.73;;;8.77;;
13571;SDS011;6857;53.484;10.216;2024-02-14T07:18:25;11.27;;;7.57;;
13571;SDS011;6857;53.484;10.216;2024-02-14T07:20:51;14.57;;;8.27;;
13571;SDS011;6857;53.484;10.216;2024-02-14T07:23:18;10.53;;;7.07;;
13571;SDS011;6857;53.484;10.216;2024-02-14T07:25:44;10.87;;;7.40;;
13571;SDS011;6857;53.484;10.216;2024-02-14T07:28:10;14.20;;;8.43;;
13571;SDS011;6857;53.484;10.216;2024-02-14T07:30:36;11.27;;;7.63;;
13571;SDS011;6857;53.484;10.216;2024-02-14T07:33:01;13.23;;;8.20;;
13571;SDS011;6857;53.484;10.216;2024-02-14T07:35:27;13.93;;;9.40;;
13571;SDS011;6857;53.484;10.216;2024-02-14T07:37:53;15.63;;;10.53;;
13571;SDS011;6857;53.484;10.216;2024-02-14T07:40:19;11.30;;;7.83;;
13571;SDS011;6857;53.484;10.216;2024-02-14T07:42:45;16.30;;;8.17;;
13571;SDS011;6857;53.484;10.216;2024-02-14T07:45:11;12.27;;;7.77;;
13571;SDS011;6857;53.484;10.216;2024-02-14T07:47:37;12.97;;;9.17;;
13571;SDS011;6857;53.484;10.216;2024-02-14T07:50:04;15.17;;;9.47;;
13571;SDS011;6857;53.484;10.216;2024-02-14T07:52:29;18.37;;;13.93;;
13571;SDS011;6857;53.484;10.216;2024-02-14T07:54:56;14.10;;;8.90;;
13571;SDS011;6857;53.484;10.216;2024-02-14T07:57:23;15.00;;;9.63;;
13571;SDS011;6857;53.484;10.216;2024-02-14T07:59:49;15.10;;;9.27;;
13571;SDS011;6857;53.484;10.216;2024-02-14T08:02:15;15.57;;;9.70;;
13571;SDS011;6857;53.484;10.216;2024-02-14T08:04:41;14.43;;;9.67;;
13571;SDS011;6857;53.484;10.216;2024-02-14T08:07:07;27.70;;;11.43;;
13571;SDS011;6857;53.484;10.216;2024-02-14T08:09:33;35.27;;;13.03;;
13571;SDS011;6857;53.484;10.216;2024-02-14T08:11:59;22.90;;;10.57;;
13571;SDS011;6857;53.484;10.216;2024-02-14T08:14:25;33.40;;;13.07;;
13571;SDS011;6857;53.484;10.216;2024-02-14T08:16:50;48.07;;;14.53;;
13571;SDS011;6857;53.484;10.216;2024-02-14T08:19:16;13.80;;;8.47;;
13571;SDS011;6857;53.484;10.216;2024-02-14T08:21:43;11.80;;;8.80;;
13571;SDS011;6857;53.484;10.216;2024-02-14T08:24:09;14.93;;;9.77;;
13571;SDS011;6857;53.484;10.216;2024-02-14T08:26:34;13.30;;;8.67;;
13571;SDS011;6857;53.484;10.216;2024-02-14T08:29:00;12.97;;;8.50;;
13571;SDS011;6857;53.484;10.216;2024-02-14T08:31:26;16.73;;;9.83;;
13571;SDS011;6857;53.484;10.216;2024-02-14T08:33:52;17.00;;;10.10;;
13571;SDS011;6857;53.484;10.216;2024-02-14T08:36:18;16.97;;;10.13;;
13571;SDS011;6857;53.484;10.216;2024-02-14T08:38:44;16.50;;;11.30;;
13571;SDS011;6857;53.484;10.216;2024-02-14T08:41:10;13.63;;;9.43;;
13571;SDS011;6857;53.484;10.216;2024-02-14T08:43:35;14.10;;;9.77;;
13571;SDS011;6857;53.484;10.216;2024-02-14T08:46:01;19.23;;;9.60;;
13571;SDS011;6857;53.484;10.216;2024-02-14T08:48:27;13.83;;;8.57;;
13571;SDS011;6857;53.484;10.216;2024-02-14T08:50:55;9.77;;;7.47;;
13571;SDS011;6857;53.484;10.216;2024-02-14T08:53:21;14.37;;;8.30;;
13571;SDS011;6857;53.484;10.216;2024-02-14T08:55:47;10.40;;;7.70;;
13571;SDS011;6857;53.484;10.216;2024-02-14T08:58:13;11.03;;;7.80;;
13571;SDS011;6857;53.484;10.216;2024-02-14T09:00:39;11.50;;;8.10;;
13571;SDS011;6857;53.484;10.216;2024-02-14T09:03:05;9.37;;;7.13;;
13571;SDS011;6857;53.484;10.216;2024-02-14T09:05:31;12.13;;;7.70;;
13571;SDS011;6857;53.484;10.216;2024-02-14T09:07:57;10.00;;;7.23;;
13571;SDS011;6857;53.484;10.216;2024-02-14T09:10:23;14.20;;;7.93;;
13571;SDS011;6857;53.484;10.216;2024-02-14T09:12:48;8.87;;;6.63;;
13571;SDS011;6857;53.484;10.216;2024-02-14T09:15:14;8.97;;;6.93;;
13571;SDS011;6857;53.484;10.216;2024-02-14T09:17:40;11.27;;;7.37;;
13571;SDS011;6857;53.484;10.216;2024-02-14T09:20:07;10.50;;;6.80;;
13571;SDS011;6857;53.484;10.216;2024-02-14T09:22:37;9.73;;;6.73;;
13571;SDS011;6857;53.484;10.216;2024-02-14T09:25:03;12.47;;;8.60;;
13571;SDS011;6857;53.484;10.216;2024-02-14T09:27:29;13.03;;;7.83;;
13571;SDS011;6857;53.484;10.216;2024-02-14T09:29:55;11.53;;;7.53;;
13571;SDS011;6857;53.484;10.216;2024-02-14T09:32:21;10.67;;;7.53;;
13571;SDS011;6857;53.484;10.216;2024-02-14T09:34:46;10.23;;;6.60;;
13571;SDS011;6857;53.484;10.216;2024-02-14T09:37:12;10.30;;;6.23;;
13571;SDS011;6857;53.484;10.216;2024-02-14T09:39:38;9.33;;;6.60;;
13571;SDS011;6857;53.484;10.216;2024-02-14T09:42:06;9.40;;;6.40;;
13571;SDS011;6857;53.484;10.216;2024-02-14T09:44:34;10.63;;;6.47;;
13571;SDS011;6857;53.484;10.216;2024-02-14T09:47:01;10.70;;;5.77;;
13571;SDS011;6857;53.484;10.216;2024-02-14T09:49:29;9.73;;;5.93;;
13571;SDS011;6857;53.484;10.216;2024-02-14T09:51:56;8.27;;;5.73;;
13571;SDS011;6857;53.484;10.216;2024-02-14T09:54:23;7.77;;;5.33;;
13571;SDS011;6857;53.484;10.216;2024-02-14T09:56:50;8.60;;;6.17;;
13571;SDS011;6857;53.484;10.216;2024-02-14T09:59:19;10.13;;;6.60;;
13571;SDS011;6857;53.484;10.216;2024-02-14T10:01:46;38.67;;;23.43;;
13571;SDS011;6857;53.484;10.216;2024-02-14T10:04:14;9.83;;;6.80;;
13571;SDS011;6857;53.484;10.216;2024-02-14T10:06:40;8.80;;;5.43;;
13571;SDS011;6857;53.484;10.216;2024-02-14T10:09:05;6.30;;;5.00;;
13571;SDS011;6857;53.484;10.216;2024-02-14T10:11:31;8.80;;;5.67;;
13571;SDS011;6857;53.484;10.216;2024-02-14T10:13:57;8.33;;;5.37;;
13571;SDS011;6857;53.484;10.216;2024-02-14T10:16:27;6.80;;;4.90;;
13571;SDS011;6857;53.484;10.216;2024-02-14T10:18:53;7.43;;;5.37;;
13571;SDS011;6857;53.484;10.216;2024-02-14T10:21:19;7.70;;;4.77;;
13571;SDS011;6857;53.484;10.216;2024-02-14T10:23:47;6.73;;;5.00;;
13571;SDS011;6857;53.484;10.216;2024-02-14T10:26:17;8.07;;;5.57;;
13571;SDS011;6857;53.484;10.216;2024-02-14T10:28:43;6.10;;;4.70;;
13571;SDS011;6857;53.484;10.216;2024-02-14T10:31:12;5.30;;;4.27;;
13571;SDS011;6857;53.484;10.216;2024-02-14T10:33:38;5.60;;;4.10;;
13571;SDS011;6857;53.484;10.216;2024-02-14T10:36:06;6.00;;;4.20;;
13571;SDS011;6857;53.484;10.216;2024-02-14T10:38:33;8.97;;;6.13;;
13571;SDS011;6857;53.484;10.216;2024-02-14T10:41:00;8.37;;;5.90;;
13571;SDS011;6857;53.484;10.216;2024-02-14T10:43:27;5.50;;;4.23;;
13571;SDS011;6857;53.484;10.216;2024-02-14T10:45:56;3.87;;;3.30;;
13571;SDS011;6857;53.484;10.216;2024-02-14T10:48:24;5.47;;;3.60;;
13571;SDS011;6857;53.484;10.216;2024-02-14T10:50:52;3.53;;;3.10;;
13571;SDS011;6857;53.484;10.216;2024-02-14T10:53:19;13.80;;;8.87;;
13571;SDS011;6857;53.484;10.216;2024-02-14T10:55:46;3.03;;;2.63;;
13571;SDS011;6857;53.484;10.216;2024-02-14T10:58:13;37.80;;;21.00;;
13571;SDS011;6857;53.484;10.216;2024-02-14T11:00:41;4.00;;;2.97;;
13571;SDS011;6857;53.484;10.216;2024-02-14T11:03:08;2.83;;;2.53;;
13571;SDS011;6857;53.484;10.216;2024-02-14T11:05:44;4.47;;;3.00;;
13571;SDS011;6857;53.484;10.216;2024-02-14T11:08:13;2.50;;;2.30;;
13571;SDS011;6857;53.484;10.216;2024-02-14T11:10:40;3.13;;;2.77;;
13571;SDS011;6857;53.484;10.216;2024-02-14T11:13:09;3.37;;;2.83;;
13571;SDS011;6857;53.484;10.216;2024-02-14T11:15:38;3.27;;;2.63;;
13571;SDS011;6857;53.484;10.216;2024-02-14T11:18:05;3.43;;;2.57;;
13571;SDS011;6857;53.484;10.216;2024-02-14T11:20:35;3.00;;;2.70;;
13571;SDS011;6857;53.484;10.216;2024-02-14T11:23:04;2.90;;;2.60;;
13571;SDS011;6857;53.484;10.216;2024-02-14T11:25:34;24.07;;;14.57;;
13571;SDS011;6857;53.484;10.216;2024-02-14T11:28:00;18.60;;;11.77;;
13571;SDS011;6857;53.484;10.216;2024-02-14T11:30:39;4.60;;;2.90;;
13571;SDS011;6857;53.484;10.216;2024-02-14T11:35:49;3.53;;;3.00;;
13571;SDS011;6857;53.484;10.216;2024-02-14T11:38:20;4.60;;;3.50;;
13571;SDS011;6857;53.484;10.216;2024-02-14T11:40:47;4.07;;;3.20;;
13571;SDS011;6857;53.484;10.216;2024-02-14T11:43:14;5.40;;;3.47;;
13571;SDS011;6857;53.484;10.216;2024-02-14T11:45:42;4.30;;;3.70;;
13571;SDS011;6857;53.484;10.216;2024-02-14T11:48:11;5.27;;;3.40;;
13571;SDS011;6857;53.484;10.216;2024-02-14T11:50:41;4.73;;;3.73;;
13571;SDS011;6857;53.484;10.216;2024-02-14T11:53:08;5.00;;;3.90;;
13571;SDS011;6857;53.484;10.216;2024-02-14T11:55:38;5.10;;;3.70;;
13571;SDS011;6857;53.484;10.216;2024-02-14T11:58:08;4.73;;;4.03;;
13571;SDS011;6857;53.484;10.216;2024-02-14T12:00:37;19.67;;;11.87;;
13571;SDS011;6857;53.484;10.216;2024-02-14T12:03:06;5.47;;;3.77;;
13571;SDS011;6857;53.484;10.216;2024-02-14T12:05:33;5.03;;;4.03;;
13571;SDS011;6857;53.484;10.216;2024-02-14T12:08:01;6.83;;;3.73;;
13571;SDS011;6857;53.484;10.216;2024-02-14T12:10:27;4.93;;;3.80;;
13571;SDS011;6857;53.484;10.216;2024-02-14T12:12:55;9.10;;;5.93;;
13571;SDS011;6857;53.484;10.216;2024-02-14T12:15:21;16.30;;;11.00;;
13571;SDS011;6857;53.484;10.216;2024-02-14T12:17:47;6.23;;;4.83;;
13571;SDS011;6857;53.484;10.216;2024-02-14T12:20:14;6.73;;;4.37;;
13571;SDS011;6857;53.484;10.216;2024-02-14T12:22:41;5.30;;;4.20;;
13571;SDS011;6857;53.484;10.216;2024-02-14T12:25:07;10.17;;;4.97;;
13571;SDS011;6857;53.484;10.216;2024-02-14T12:27:35;6.10;;;4.40;;
13571;SDS011;6857;53.484;10.216;2024-02-14T12:30:06;7.50;;;4.30;;
13571;SDS011;6857;53.484;10.216;2024-02-14T12:32:33;5.70;;;4.73;;
13571;SDS011;6857;53.484;10.216;2024-02-14T12:34:59;6.27;;;4.53;;
13571;SDS011;6857;53.484;10.216;2024-02-14T12:37:25;11.83;;;7.53;;
13571;SDS011;6857;53.484;10.216;2024-02-14T12:39:51;8.50;;;4.97;;
13571;SDS011;6857;53.484;10.216;2024-02-14T12:42:17;7.23;;;5.60;;
13571;SDS011;6857;53.484;10.216;2024-02-14T12:44:49;8.00;;;5.27;;
13571;SDS011;6857;53.484;10.216;2024-02-14T12:47:15;10.43;;;7.17;;
13571;SDS011;6857;53.484;10.216;2024-02-14T12:49:41;8.00;;;5.83;;
13571;SDS011;6857;53.484;10.216;2024-02-14T12:52:08;9.40;;;6.10;;
13571;SDS011;6857;53.484;10.216;2024-02-14T12:54:33;9.10;;;6.37;;
13571;SDS011;6857;53.484;10.216;2024-02-14T12:56:59;12.10;;;7.80;;
13571;SDS011;6857;53.484;10.216;2024-02-14T12:59:24;9.77;;;7.17;;
13571;SDS011;6857;53.484;10.216;2024-02-14T13:01:50;17.17;;;10.07;;
13571;SDS011;6857;53.484;10.216;2024-02-14T13:04:16;9.77;;;7.37;;
13571;SDS011;6857;53.484;10.216;2024-02-14T13:06:41;11.40;;;7.53;;
13571;SDS011;6857;53.484;10.216;2024-02-14T13:09:07;10.70;;;7.53;;
13571;SDS011;6857;53.484;10.216;2024-02-14T13:11:33;13.10;;;9.03;;
13571;SDS011;6857;53.484;10.216;2024-02-14T13:13:59;19.03;;;11.50;;
13571;SDS011;6857;53.484;10.216;2024-02-14T13:16:24;9.53;;;7.60;;
13571;SDS011;6857;53.484;10.216;2024-02-14T13:18:50;10.90;;;8.17;;
13571;SDS011;6857;53.484;10.216;2024-02-14T13:21:15;12.23;;;7.60;;
13571;SDS011;6857;53.484;10.216;2024-02-14T13:23:42;9.90;;;7.10;;
13571;SDS011;6857;53.484;10.216;2024-02-14T13:26:07;10.93;;;6.97;;
13571;SDS011;6857;53.484;10.216;2024-02-14T13:28:33;10.50;;;7.13;;
13571;SDS011;6857;53.484;10.216;2024-02-14T13:30:59;12.63;;;7.50;;
13571;SDS011;6857;53.484;10.216;2024-02-14T13:33:24;10.53;;;7.33;;
13571;SDS011;6857;53.484;10.216;2024-02-14T13:35:50;12.40;;;6.43;;
13571;SDS011;6857;53.484;10.216;2024-02-14T13:38:16;8.40;;;6.50;;
13571;SDS011;6857;53.484;10.216;2024-02-14T13:40:42;10.67;;;6.03;;
13571;SDS011;6857;53.484;10.216;2024-02-14T13:43:08;8.30;;;6.50;;
13571;SDS011;6857;53.484;10.216;2024-02-14T13:45:41;12.53;;;8.70;;
13571;SDS011;6857;53.484;10.216;2024-02-14T13:48:07;12.10;;;6.33;;
13571;SDS011;6857;53.484;10.216;2024-02-14T13:50:34;10.20;;;6.27;;
13571;SDS011;6857;53.484;10.216;2024-02-14T13:53:00;9.83;;;6.87;;
13571;SDS011;6857;53.484;10.216;2024-02-14T13:55:25;8.53;;;6.10;;
13571;SDS011;6857;53.484;10.216;2024-02-14T13:57:51;7.57;;;6.17;;
13571;SDS011;6857;53.484;10.216;2024-02-14T14:00:16;9.07;;;6.93;;
13571;SDS011;6857;53.484;10.216;2024-02-14T14:02:42;8.63;;;6.53;;
13571;SDS011;6857;53.484;10.216;2024-02-14T14:05:08;9.63;;;6.97;;
13571;SDS011;6857;53.484;10.216;2024-02-14T14:07:40;9.80;;;7.00;;
13571;SDS011;6857;53.484;10.216;2024-02-14T14:10:06;11.60;;;7.07;;
13571;SDS011;6857;53.484;10.216;2024-02-14T14:12:35;10.67;;;6.67;;
13571;SDS011;6857;53.484;10.216;2024-02-14T14:15:02;10.03;;;6.63;;
13571;SDS011;6857;53.484;10.216;2024-02-14T14:17:28;9.30;;;6.23;;
13571;SDS011;6857;53.484;10.216;2024-02-14T14:19:53;11.43;;;6.47;;
13571;SDS011;6857;53.484;10.216;2024-02-14T14:22:19;9.23;;;6.47;;
13571;SDS011;6857;53.484;10.216;2024-02-14T14:24:46;8.47;;;6.57;;
13571;SDS011;6857;53.484;10.216;2024-02-14T14:27:11;9.30;;;6.30;;
13571;SDS011;6857;53.484;10.216;2024-02-14T14:29:40;7.97;;;5.97;;
13571;SDS011;6857;53.484;10.216;2024-02-14T14:32:09;7.47;;;6.33;;
13571;SDS011;6857;53.484;10.216;2024-02-14T14:34:35;7.77;;;5.87;;
13571;SDS011;6857;53.484;10.216;2024-02-14T14:37:01;8.60;;;6.17;;
13571;SDS011;6857;53.484;10.216;2024-02-14T14:39:27;7.77;;;5.27;;
13571;SDS011;6857;53.484;10.216;2024-02-14T14:41:53;7.93;;;6.07;;